sensor_id;sensor_type;location;lat;lon;timestamp;temperature;humidity
3699;DHT22;1865;50.918;7.092;2022-11-20T00:03:35;8.40;46.90
3699;DHT22;1865;50.918;7.092;2022-11-20T00:06:05;8.50;46.60
3699;DHT22;1865;50.918;7.092;2022-11-20T00:08:33;8.50;46.80
3699;DHT22;1865;50.918;7.092;2022-11-20T00:11:16;8.30;47.00
3699;DHT22;1865;50.918;7.092;2022-11-20T00:13:47;8.20;47.30
3699;DHT22;1865;50.918;7.092;2022-11-20T00:16:15;8.30;47.30
3699;DHT22;1865;50.918;7.092;2022-11-20T00:18:41;8.10;47.20
3699;DHT22;1865;50.918;7.092;2022-11-20T00:21:11;8.10;47.70
3699;DHT22;1865;50.918;7.092;2022-11-20T00:23:38;8.10;47.50
3699;DHT22;1865;50.918;7.092;2022-11-20T00:26:06;8.20;47.70
3699;DHT22;1865;50.918;7.092;2022-11-20T00:28:32;8.20;47.20
3699;DHT22;1865;50.918;7.092;2022-11-20T00:31:03;8.10;47.50
3699;DHT22;1865;50.918;7.092;2022-11-20T00:33:29;8.10;47.70
3699;DHT22;1865;50.918;7.092;2022-11-20T00:36:03;8.20;46.60
3699;DHT22;1865;50.918;7.092;2022-11-20T00:38:29;8.20;47.40
3699;DHT22;1865;50.918;7.092;2022-11-20T00:40:59;8.20;47.20
3699;DHT22;1865;50.918;7.092;2022-11-20T00:43:26;8.20;47.20
3699;DHT22;1865;50.918;7.092;2022-11-20T00:46:05;8.10;47.10
3699;DHT22;1865;50.918;7.092;2022-11-20T00:48:31;8.00;46.40
3699;DHT22;1865;50.918;7.092;2022-11-20T00:50:57;8.10;47.60
3699;DHT22;1865;50.918;7.092;2022-11-20T00:53:26;8.20;47.50
3699;DHT22;1865;50.918;7.092;2022-11-20T00:55:57;8.10;47.00
3699;DHT22;1865;50.918;7.092;2022-11-20T00:58:23;8.30;47.60
3699;DHT22;1865;50.918;7.092;2022-11-20T01:00:49;8.10;47.70
3699;DHT22;1865;50.918;7.092;2022-11-20T01:03:17;8.10;47.70
3699;DHT22;1865;50.918;7.092;2022-11-20T01:05:43;8.20;48.10
3699;DHT22;1865;50.918;7.092;2022-11-20T01:08:09;8.30;47.40
3699;DHT22;1865;50.918;7.092;2022-11-20T01:10:35;8.30;47.30
3699;DHT22;1865;50.918;7.092;2022-11-20T01:13:00;8.30;47.70
3699;DHT22;1865;50.918;7.092;2022-11-20T01:15:44;8.40;47.40
3699;DHT22;1865;50.918;7.092;2022-11-20T01:18:10;8.30;48.00
3699;DHT22;1865;50.918;7.092;2022-11-20T01:20:36;8.40;47.70
3699;DHT22;1865;50.918;7.092;2022-11-20T01:23:03;8.30;46.70
3699;DHT22;1865;50.918;7.092;2022-11-20T01:25:28;8.20;46.30
3699;DHT22;1865;50.918;7.092;2022-11-20T01:27:58;8.00;46.50
3699;DHT22;1865;50.918;7.092;2022-11-20T01:30:24;7.90;47.50
3699;DHT22;1865;50.918;7.092;2022-11-20T01:32:50;7.90;47.50
3699;DHT22;1865;50.918;7.092;2022-11-20T01:35:15;8.00;47.70
3699;DHT22;1865;50.918;7.092;2022-11-20T01:37:41;8.00;47.40
3699;DHT22;1865;50.918;7.092;2022-11-20T01:40:08;8.10;47.00
3699;DHT22;1865;50.918;7.092;2022-11-20T01:42:33;8.10;46.00
3699;DHT22;1865;50.918;7.092;2022-11-20T01:48:20;8.00;45.60
3699;DHT22;1865;50.918;7.092;2022-11-20T01:50:48;7.90;46.40
3699;DHT22;1865;50.918;7.092;2022-11-20T01:53:16;8.10;46.80
3699;DHT22;1865;50.918;7.092;2022-11-20T01:56:05;7.90;46.20
3699;DHT22;1865;50.918;7.092;2022-11-20T01:58:35;7.90;47.10
3699;DHT22;1865;50.918;7.092;2022-11-20T02:01:03;8.00;47.20
3699;DHT22;1865;50.918;7.092;2022-11-20T02:03:29;8.10;46.80
3699;DHT22;1865;50.918;7.092;2022-11-20T02:06:15;8.10;46.80
3699;DHT22;1865;50.918;7.092;2022-11-20T02:08:41;8.20;48.10
3699;DHT22;1865;50.918;7.092;2022-11-20T02:11:07;8.00;48.00
3699;DHT22;1865;50.918;7.092;2022-11-20T02:13:33;8.10;47.30
3699;DHT22;1865;50.918;7.092;2022-11-20T02:16:22;8.10;47.40
3699;DHT22;1865;50.918;7.092;2022-11-20T02:18:49;8.20;47.40
3699;DHT22;1865;50.918;7.092;2022-11-20T02:21:30;8.10;47.20
3699;DHT22;1865;50.918;7.092;2022-11-20T02:26:42;8.20;47.60
3699;DHT22;1865;50.918;7.092;2022-11-20T02:29:09;8.30;47.10
3699;DHT22;1865;50.918;7.092;2022-11-20T02:31:38;8.20;46.90
3699;DHT22;1865;50.918;7.092;2022-11-20T02:34:05;8.20;46.80
3699;DHT22;1865;50.918;7.092;2022-11-20T02:36:32;8.20;46.60
3699;DHT22;1865;50.918;7.092;2022-11-20T02:38:58;8.20;46.60
3699;DHT22;1865;50.918;7.092;2022-11-20T02:41:32;8.20;46.60
3699;DHT22;1865;50.918;7.092;2022-11-20T02:43:57;8.10;46.80
3699;DHT22;1865;50.918;7.092;2022-11-20T02:46:23;8.10;48.30
3699;DHT22;1865;50.918;7.092;2022-11-20T02:48:48;8.20;46.90
3699;DHT22;1865;50.918;7.092;2022-11-20T02:51:14;8.20;47.70
3699;DHT22;1865;50.918;7.092;2022-11-20T02:53:40;8.10;48.10
3699;DHT22;1865;50.918;7.092;2022-11-20T02:56:06;8.10;47.60
3699;DHT22;1865;50.918;7.092;2022-11-20T02:58:33;8.10;48.20
3699;DHT22;1865;50.918;7.092;2022-11-20T03:01:00;8.00;47.60
3699;DHT22;1865;50.918;7.092;2022-11-20T03:03:25;8.10;48.20
3699;DHT22;1865;50.918;7.092;2022-11-20T03:05:52;8.10;47.30
3699;DHT22;1865;50.918;7.092;2022-11-20T03:08:18;8.10;47.10
3699;DHT22;1865;50.918;7.092;2022-11-20T03:10:44;7.90;47.20
3699;DHT22;1865;50.918;7.092;2022-11-20T03:13:09;7.90;48.10
3699;DHT22;1865;50.918;7.092;2022-11-20T03:15:37;8.00;47.90
3699;DHT22;1865;50.918;7.092;2022-11-20T03:18:03;7.90;47.70
3699;DHT22;1865;50.918;7.092;2022-11-20T03:20:28;7.90;48.50
3699;DHT22;1865;50.918;7.092;2022-11-20T03:22:54;7.90;48.00
3699;DHT22;1865;50.918;7.092;2022-11-20T03:25:21;7.90;48.10
3699;DHT22;1865;50.918;7.092;2022-11-20T03:27:46;7.90;48.90
3699;DHT22;1865;50.918;7.092;2022-11-20T03:30:12;7.90;48.50
3699;DHT22;1865;50.918;7.092;2022-11-20T03:32:38;8.00;48.40
3699;DHT22;1865;50.918;7.092;2022-11-20T03:35:03;8.00;48.10
3699;DHT22;1865;50.918;7.092;2022-11-20T03:37:29;8.00;48.20
3699;DHT22;1865;50.918;7.092;2022-11-20T03:39:54;8.00;47.80
3699;DHT22;1865;50.918;7.092;2022-11-20T03:42:20;8.00;48.50
3699;DHT22;1865;50.918;7.092;2022-11-20T03:45:21;8.00;48.80
3699;DHT22;1865;50.918;7.092;2022-11-20T03:47:47;7.90;48.40
3699;DHT22;1865;50.918;7.092;2022-11-20T03:50:15;7.90;49.20
3699;DHT22;1865;50.918;7.092;2022-11-20T03:52:41;8.00;48.10
3699;DHT22;1865;50.918;7.092;2022-11-20T03:55:07;8.00;48.40
3699;DHT22;1865;50.918;7.092;2022-11-20T03:57:33;8.10;48.80
3699;DHT22;1865;50.918;7.092;2022-11-20T04:00:00;8.00;49.30
3699;DHT22;1865;50.918;7.092;2022-11-20T04:02:26;8.00;48.60
3699;DHT22;1865;50.918;7.092;2022-11-20T04:04:52;8.10;48.80
3699;DHT22;1865;50.918;7.092;2022-11-20T04:07:18;8.10;48.80
3699;DHT22;1865;50.918;7.092;2022-11-20T04:09:43;8.00;49.60
3699;DHT22;1865;50.918;7.092;2022-11-20T04:12:09;8.10;49.20
3699;DHT22;1865;50.918;7.092;2022-11-20T04:14:34;8.20;49.20
3699;DHT22;1865;50.918;7.092;2022-11-20T04:17:00;8.10;48.40
3699;DHT22;1865;50.918;7.092;2022-11-20T04:19:25;8.10;48.80
3699;DHT22;1865;50.918;7.092;2022-11-20T04:21:51;8.20;48.10
3699;DHT22;1865;50.918;7.092;2022-11-20T04:24:16;8.10;48.20
3699;DHT22;1865;50.918;7.092;2022-11-20T04:26:42;8.10;48.90
3699;DHT22;1865;50.918;7.092;2022-11-20T04:29:10;8.00;48.90
3699;DHT22;1865;50.918;7.092;2022-11-20T04:31:36;8.00;49.00
3699;DHT22;1865;50.918;7.092;2022-11-20T04:34:03;8.00;48.90
3699;DHT22;1865;50.918;7.092;2022-11-20T04:36:29;8.00;49.20
3699;DHT22;1865;50.918;7.092;2022-11-20T04:38:57;7.90;49.00
3699;DHT22;1865;50.918;7.092;2022-11-20T04:41:25;7.90;48.80
3699;DHT22;1865;50.918;7.092;2022-11-20T04:43:55;7.90;49.60
3699;DHT22;1865;50.918;7.092;2022-11-20T04:46:25;7.80;49.70
3699;DHT22;1865;50.918;7.092;2022-11-20T04:48:51;7.90;49.80
3699;DHT22;1865;50.918;7.092;2022-11-20T04:51:16;7.90;49.70
3699;DHT22;1865;50.918;7.092;2022-11-20T04:53:42;7.90;50.40
3699;DHT22;1865;50.918;7.092;2022-11-20T04:56:11;7.90;50.20
3699;DHT22;1865;50.918;7.092;2022-11-20T04:58:39;7.90;50.10
3699;DHT22;1865;50.918;7.092;2022-11-20T05:01:06;7.90;50.40
3699;DHT22;1865;50.918;7.092;2022-11-20T05:03:32;8.00;50.50
3699;DHT22;1865;50.918;7.092;2022-11-20T05:06:02;7.90;50.90
3699;DHT22;1865;50.918;7.092;2022-11-20T05:08:28;7.90;50.80
3699;DHT22;1865;50.918;7.092;2022-11-20T05:10:58;7.90;50.90
3699;DHT22;1865;50.918;7.092;2022-11-20T05:13:24;7.90;51.00
3699;DHT22;1865;50.918;7.092;2022-11-20T05:15:51;8.00;51.10
3699;DHT22;1865;50.918;7.092;2022-11-20T05:18:16;8.00;50.90
3699;DHT22;1865;50.918;7.092;2022-11-20T05:20:42;8.00;50.90
3699;DHT22;1865;50.918;7.092;2022-11-20T05:23:08;8.00;50.90
3699;DHT22;1865;50.918;7.092;2022-11-20T05:25:33;8.10;51.10
3699;DHT22;1865;50.918;7.092;2022-11-20T05:27:59;8.10;51.00
3699;DHT22;1865;50.918;7.092;2022-11-20T05:30:25;8.10;51.10
3699;DHT22;1865;50.918;7.092;2022-11-20T05:32:53;8.10;50.70
3699;DHT22;1865;50.918;7.092;2022-11-20T05:35:18;8.10;51.00
3699;DHT22;1865;50.918;7.092;2022-11-20T05:37:45;8.10;51.00
3699;DHT22;1865;50.918;7.092;2022-11-20T05:40:11;8.00;50.10
3699;DHT22;1865;50.918;7.092;2022-11-20T05:42:37;8.10;50.70
3699;DHT22;1865;50.918;7.092;2022-11-20T05:45:04;8.10;50.90
3699;DHT22;1865;50.918;7.092;2022-11-20T05:47:33;8.20;50.60
3699;DHT22;1865;50.918;7.092;2022-11-20T05:50:01;8.20;50.60
3699;DHT22;1865;50.918;7.092;2022-11-20T05:52:30;8.20;50.30
3699;DHT22;1865;50.918;7.092;2022-11-20T05:54:56;8.20;50.70
3699;DHT22;1865;50.918;7.092;2022-11-20T05:57:22;8.20;50.70
3699;DHT22;1865;50.918;7.092;2022-11-20T05:59:49;8.30;51.20
3699;DHT22;1865;50.918;7.092;2022-11-20T06:02:14;8.10;50.60
3699;DHT22;1865;50.918;7.092;2022-11-20T06:04:40;8.10;50.30
3699;DHT22;1865;50.918;7.092;2022-11-20T06:07:05;8.20;50.60
3699;DHT22;1865;50.918;7.092;2022-11-20T06:09:34;8.20;50.40
3699;DHT22;1865;50.918;7.092;2022-11-20T06:11:59;8.20;50.20
3699;DHT22;1865;50.918;7.092;2022-11-20T06:14:26;8.20;50.60
3699;DHT22;1865;50.918;7.092;2022-11-20T06:16:52;8.20;49.60
3699;DHT22;1865;50.918;7.092;2022-11-20T06:19:17;8.10;50.20
3699;DHT22;1865;50.918;7.092;2022-11-20T06:21:43;8.00;50.20
3699;DHT22;1865;50.918;7.092;2022-11-20T06:24:11;8.10;50.90
3699;DHT22;1865;50.918;7.092;2022-11-20T06:26:38;8.10;50.60
3699;DHT22;1865;50.918;7.092;2022-11-20T06:29:04;8.10;50.70
3699;DHT22;1865;50.918;7.092;2022-11-20T06:31:30;8.10;49.70
3699;DHT22;1865;50.918;7.092;2022-11-20T06:34:00;8.00;50.10
3699;DHT22;1865;50.918;7.092;2022-11-20T06:36:26;8.00;50.50
3699;DHT22;1865;50.918;7.092;2022-11-20T06:38:52;8.00;50.70
3699;DHT22;1865;50.918;7.092;2022-11-20T06:41:20;8.10;50.20
3699;DHT22;1865;50.918;7.092;2022-11-20T06:43:46;8.00;50.20
3699;DHT22;1865;50.918;7.092;2022-11-20T06:46:12;8.10;50.30
3699;DHT22;1865;50.918;7.092;2022-11-20T06:48:39;8.10;50.20
3699;DHT22;1865;50.918;7.092;2022-11-20T06:51:05;8.00;50.00
3699;DHT22;1865;50.918;7.092;2022-11-20T06:53:32;8.00;50.50
3699;DHT22;1865;50.918;7.092;2022-11-20T06:55:57;8.10;50.30
3699;DHT22;1865;50.918;7.092;2022-11-20T06:58:23;8.10;49.90
3699;DHT22;1865;50.918;7.092;2022-11-20T07:00:51;8.10;50.60
3699;DHT22;1865;50.918;7.092;2022-11-20T07:03:16;8.10;50.10
3699;DHT22;1865;50.918;7.092;2022-11-20T07:05:42;8.10;50.60
3699;DHT22;1865;50.918;7.092;2022-11-20T07:08:10;8.10;50.50
3699;DHT22;1865;50.918;7.092;2022-11-20T07:10:37;8.10;50.70
3699;DHT22;1865;50.918;7.092;2022-11-20T07:13:03;8.10;50.60
3699;DHT22;1865;50.918;7.092;2022-11-20T07:15:31;8.00;50.40
3699;DHT22;1865;50.918;7.092;2022-11-20T07:17:59;7.90;51.20
3699;DHT22;1865;50.918;7.092;2022-11-20T07:20:24;8.00;51.00
3699;DHT22;1865;50.918;7.092;2022-11-20T07:22:54;8.10;50.90
3699;DHT22;1865;50.918;7.092;2022-11-20T07:25:20;8.20;50.70
3699;DHT22;1865;50.918;7.092;2022-11-20T07:27:46;8.20;50.30
3699;DHT22;1865;50.918;7.092;2022-11-20T07:30:12;8.10;50.80
3699;DHT22;1865;50.918;7.092;2022-11-20T07:32:38;8.20;50.60
3699;DHT22;1865;50.918;7.092;2022-11-20T07:35:04;8.30;50.50
3699;DHT22;1865;50.918;7.092;2022-11-20T07:37:35;8.30;50.20
3699;DHT22;1865;50.918;7.092;2022-11-20T07:40:01;8.30;50.50
3699;DHT22;1865;50.918;7.092;2022-11-20T07:42:27;8.30;50.10
3699;DHT22;1865;50.918;7.092;2022-11-20T07:44:52;8.40;50.30
3699;DHT22;1865;50.918;7.092;2022-11-20T07:47:18;8.40;50.50
3699;DHT22;1865;50.918;7.092;2022-11-20T07:49:43;8.30;50.60
3699;DHT22;1865;50.918;7.092;2022-11-20T07:52:08;8.20;51.00
3699;DHT22;1865;50.918;7.092;2022-11-20T07:54:34;8.20;50.70
3699;DHT22;1865;50.918;7.092;2022-11-20T07:57:00;8.30;50.90
3699;DHT22;1865;50.918;7.092;2022-11-20T07:59:25;8.30;50.60
3699;DHT22;1865;50.918;7.092;2022-11-20T08:01:51;8.40;50.60
3699;DHT22;1865;50.918;7.092;2022-11-20T08:04:16;8.30;50.60
3699;DHT22;1865;50.918;7.092;2022-11-20T08:06:42;8.30;50.60
3699;DHT22;1865;50.918;7.092;2022-11-20T08:09:07;8.30;50.80
3699;DHT22;1865;50.918;7.092;2022-11-20T08:11:33;8.40;50.90
3699;DHT22;1865;50.918;7.092;2022-11-20T08:14:17;8.50;50.90
3699;DHT22;1865;50.918;7.092;2022-11-20T08:16:46;8.40;50.30
3699;DHT22;1865;50.918;7.092;2022-11-20T08:19:12;8.40;50.70
3699;DHT22;1865;50.918;7.092;2022-11-20T08:21:38;8.50;50.50
3699;DHT22;1865;50.918;7.092;2022-11-20T08:24:07;8.50;50.90
3699;DHT22;1865;50.918;7.092;2022-11-20T08:26:36;8.50;50.50
3699;DHT22;1865;50.918;7.092;2022-11-20T08:29:05;8.60;50.30
3699;DHT22;1865;50.918;7.092;2022-11-20T08:31:32;8.60;50.40
3699;DHT22;1865;50.918;7.092;2022-11-20T08:33:58;8.60;50.80
3699;DHT22;1865;50.918;7.092;2022-11-20T08:36:24;8.60;50.70
3699;DHT22;1865;50.918;7.092;2022-11-20T08:38:52;8.70;50.20
3699;DHT22;1865;50.918;7.092;2022-11-20T08:41:18;8.90;50.20
3699;DHT22;1865;50.918;7.092;2022-11-20T08:43:52;9.10;50.00
3699;DHT22;1865;50.918;7.092;2022-11-20T08:46:19;8.90;49.40
3699;DHT22;1865;50.918;7.092;2022-11-20T08:48:45;9.00;50.10
3699;DHT22;1865;50.918;7.092;2022-11-20T08:51:11;9.00;48.90
3699;DHT22;1865;50.918;7.092;2022-11-20T08:53:38;8.90;49.80
3699;DHT22;1865;50.918;7.092;2022-11-20T08:56:05;8.80;50.00
3699;DHT22;1865;50.918;7.092;2022-11-20T08:58:30;8.90;50.60
3699;DHT22;1865;50.918;7.092;2022-11-20T09:00:56;9.00;49.70
3699;DHT22;1865;50.918;7.092;2022-11-20T09:03:22;9.00;48.80
3699;DHT22;1865;50.918;7.092;2022-11-20T09:05:48;8.80;50.10
3699;DHT22;1865;50.918;7.092;2022-11-20T09:08:13;8.90;49.90
3699;DHT22;1865;50.918;7.092;2022-11-20T09:10:39;8.90;49.80
3699;DHT22;1865;50.918;7.092;2022-11-20T09:13:07;8.80;49.70
3699;DHT22;1865;50.918;7.092;2022-11-20T09:15:34;8.80;50.30
3699;DHT22;1865;50.918;7.092;2022-11-20T09:18:01;8.80;50.90
3699;DHT22;1865;50.918;7.092;2022-11-20T09:20:28;8.90;50.50
3699;DHT22;1865;50.918;7.092;2022-11-20T09:22:56;9.00;50.10
3699;DHT22;1865;50.918;7.092;2022-11-20T09:25:22;9.00;50.10
3699;DHT22;1865;50.918;7.092;2022-11-20T09:27:58;9.00;49.80
3699;DHT22;1865;50.918;7.092;2022-11-20T09:30:26;8.90;50.50
3699;DHT22;1865;50.918;7.092;2022-11-20T09:32:52;9.10;50.70
3699;DHT22;1865;50.918;7.092;2022-11-20T09:35:18;9.30;49.70
3699;DHT22;1865;50.918;7.092;2022-11-20T09:37:44;9.40;49.20
3699;DHT22;1865;50.918;7.092;2022-11-20T09:45:38;9.50;49.20
3699;DHT22;1865;50.918;7.092;2022-11-20T09:56:01;9.60;48.00
3699;DHT22;1865;50.918;7.092;2022-11-20T09:58:38;9.60;48.40
3699;DHT22;1865;50.918;7.092;2022-11-20T10:01:30;9.60;46.70
3699;DHT22;1865;50.918;7.092;2022-11-20T10:06:33;9.70;47.50
3699;DHT22;1865;50.918;7.092;2022-11-20T10:09:20;9.60;46.90
3699;DHT22;1865;50.918;7.092;2022-11-20T10:12:13;9.60;48.00
3699;DHT22;1865;50.918;7.092;2022-11-20T10:14:44;9.50;47.60
3699;DHT22;1865;50.918;7.092;2022-11-20T10:20:35;9.60;48.00
3699;DHT22;1865;50.918;7.092;2022-11-20T10:26:03;9.50;47.80
3699;DHT22;1865;50.918;7.092;2022-11-20T10:31:30;9.60;47.90
3699;DHT22;1865;50.918;7.092;2022-11-20T10:33:59;9.60;47.90
3699;DHT22;1865;50.918;7.092;2022-11-20T10:36:28;9.70;47.40
3699;DHT22;1865;50.918;7.092;2022-11-20T10:39:03;9.70;47.60
3699;DHT22;1865;50.918;7.092;2022-11-20T10:41:42;9.60;48.00
3699;DHT22;1865;50.918;7.092;2022-11-20T10:44:13;9.60;48.00
3699;DHT22;1865;50.918;7.092;2022-11-20T10:46:48;9.60;48.10
3699;DHT22;1865;50.918;7.092;2022-11-20T10:49:16;9.60;49.10
3699;DHT22;1865;50.918;7.092;2022-11-20T10:59:55;9.90;47.60
3699;DHT22;1865;50.918;7.092;2022-11-20T11:02:51;9.90;47.60
3699;DHT22;1865;50.918;7.092;2022-11-20T11:05:23;10.00;47.40
3699;DHT22;1865;50.918;7.092;2022-11-20T11:07:53;10.10;47.80
3699;DHT22;1865;50.918;7.092;2022-11-20T11:13:07;9.80;47.80
3699;DHT22;1865;50.918;7.092;2022-11-20T11:15:39;9.90;49.00
3699;DHT22;1865;50.918;7.092;2022-11-20T11:18:08;9.70;48.70
3699;DHT22;1865;50.918;7.092;2022-11-20T11:20:36;9.70;48.60
3699;DHT22;1865;50.918;7.092;2022-11-20T11:23:02;9.70;48.90
3699;DHT22;1865;50.918;7.092;2022-11-20T11:25:35;9.70;48.90
3699;DHT22;1865;50.918;7.092;2022-11-20T11:30:44;9.70;49.10
3699;DHT22;1865;50.918;7.092;2022-11-20T11:33:32;9.80;48.40
3699;DHT22;1865;50.918;7.092;2022-11-20T11:36:01;9.90;47.90
3699;DHT22;1865;50.918;7.092;2022-11-20T11:38:35;9.90;48.60
3699;DHT22;1865;50.918;7.092;2022-11-20T11:41:04;9.90;47.10
3699;DHT22;1865;50.918;7.092;2022-11-20T11:43:33;9.90;48.20
3699;DHT22;1865;50.918;7.092;2022-11-20T11:46:31;9.90;48.40
3699;DHT22;1865;50.918;7.092;2022-11-20T11:51:45;9.90;47.80
3699;DHT22;1865;50.918;7.092;2022-11-20T11:54:17;9.90;48.10
3699;DHT22;1865;50.918;7.092;2022-11-20T11:56:45;10.00;48.40
3699;DHT22;1865;50.918;7.092;2022-11-20T11:59:16;9.90;48.40
3699;DHT22;1865;50.918;7.092;2022-11-20T12:01:52;9.90;48.20
3699;DHT22;1865;50.918;7.092;2022-11-20T12:07:00;10.00;48.50
3699;DHT22;1865;50.918;7.092;2022-11-20T12:09:34;9.80;49.10
3699;DHT22;1865;50.918;7.092;2022-11-20T12:12:10;9.80;49.10
3699;DHT22;1865;50.918;7.092;2022-11-20T12:14:42;9.80;48.70
3699;DHT22;1865;50.918;7.092;2022-11-20T12:17:13;9.80;49.10
3699;DHT22;1865;50.918;7.092;2022-11-20T12:19:41;9.90;49.00
3699;DHT22;1865;50.918;7.092;2022-11-20T12:28:11;10.00;48.50
3699;DHT22;1865;50.918;7.092;2022-11-20T12:30:50;10.00;48.40
3699;DHT22;1865;50.918;7.092;2022-11-20T12:36:28;10.00;49.00
3699;DHT22;1865;50.918;7.092;2022-11-20T12:42:21;10.00;48.50
3699;DHT22;1865;50.918;7.092;2022-11-20T12:45:35;9.90;49.40
3699;DHT22;1865;50.918;7.092;2022-11-20T12:48:30;10.00;49.20
3699;DHT22;1865;50.918;7.092;2022-11-20T12:51:23;10.10;49.20
3699;DHT22;1865;50.918;7.092;2022-11-20T12:54:30;10.00;49.00
3699;DHT22;1865;50.918;7.092;2022-11-20T12:59:58;10.10;48.80
3699;DHT22;1865;50.918;7.092;2022-11-20T13:02:44;10.10;48.70
3699;DHT22;1865;50.918;7.092;2022-11-20T13:05:21;10.20;48.80
3699;DHT22;1865;50.918;7.092;2022-11-20T13:07:52;10.40;48.40
3699;DHT22;1865;50.918;7.092;2022-11-20T13:10:37;10.40;48.50
3699;DHT22;1865;50.918;7.092;2022-11-20T13:15:59;10.40;48.30
3699;DHT22;1865;50.918;7.092;2022-11-20T13:18:26;10.70;47.80
3699;DHT22;1865;50.918;7.092;2022-11-20T13:20:52;10.70;47.10
3699;DHT22;1865;50.918;7.092;2022-11-20T13:23:26;10.50;47.50
3699;DHT22;1865;50.918;7.092;2022-11-20T13:26:04;10.40;48.00
3699;DHT22;1865;50.918;7.092;2022-11-20T13:28:30;10.40;48.60
3699;DHT22;1865;50.918;7.092;2022-11-20T13:30:57;10.50;48.90
3699;DHT22;1865;50.918;7.092;2022-11-20T13:33:35;10.50;48.20
3699;DHT22;1865;50.918;7.092;2022-11-20T13:36:23;10.80;48.40
3699;DHT22;1865;50.918;7.092;2022-11-20T13:38:53;10.80;48.00
3699;DHT22;1865;50.918;7.092;2022-11-20T13:41:34;10.70;48.40
3699;DHT22;1865;50.918;7.092;2022-11-20T13:46:38;10.70;48.30
3699;DHT22;1865;50.918;7.092;2022-11-20T13:49:08;10.50;48.60
3699;DHT22;1865;50.918;7.092;2022-11-20T13:51:44;10.70;49.20
3699;DHT22;1865;50.918;7.092;2022-11-20T13:54:36;10.80;48.10
3699;DHT22;1865;50.918;7.092;2022-11-20T13:57:30;10.90;48.20
3699;DHT22;1865;50.918;7.092;2022-11-20T14:00:15;10.90;48.60
3699;DHT22;1865;50.918;7.092;2022-11-20T14:02:41;10.90;48.10
3699;DHT22;1865;50.918;7.092;2022-11-20T14:05:22;10.70;48.60
3699;DHT22;1865;50.918;7.092;2022-11-20T14:07:50;10.80;48.90
3699;DHT22;1865;50.918;7.092;2022-11-20T14:10:26;10.80;48.90
3699;DHT22;1865;50.918;7.092;2022-11-20T14:12:53;10.80;49.10
3699;DHT22;1865;50.918;7.092;2022-11-20T14:15:32;10.80;48.90
3699;DHT22;1865;50.918;7.092;2022-11-20T14:17:59;10.80;49.80
3699;DHT22;1865;50.918;7.092;2022-11-20T14:20:28;10.80;49.30
3699;DHT22;1865;50.918;7.092;2022-11-20T14:22:56;10.70;49.30
3699;DHT22;1865;50.918;7.092;2022-11-20T14:25:24;10.70;49.60
3699;DHT22;1865;50.918;7.092;2022-11-20T14:27:53;10.60;49.90
3699;DHT22;1865;50.918;7.092;2022-11-20T14:30:22;10.70;49.70
3699;DHT22;1865;50.918;7.092;2022-11-20T14:32:49;10.70;50.20
3699;DHT22;1865;50.918;7.092;2022-11-20T14:35:20;10.70;49.80
3699;DHT22;1865;50.918;7.092;2022-11-20T14:37:46;10.60;50.70
3699;DHT22;1865;50.918;7.092;2022-11-20T14:42:53;10.70;50.40
3699;DHT22;1865;50.918;7.092;2022-11-20T14:45:19;10.80;49.90
3699;DHT22;1865;50.918;7.092;2022-11-20T14:47:46;10.70;50.30
3699;DHT22;1865;50.918;7.092;2022-11-20T14:50:26;10.60;50.70
3699;DHT22;1865;50.918;7.092;2022-11-20T14:52:54;10.60;50.80
3699;DHT22;1865;50.918;7.092;2022-11-20T14:55:35;10.60;51.10
3699;DHT22;1865;50.918;7.092;2022-11-20T14:58:06;10.70;51.00
3699;DHT22;1865;50.918;7.092;2022-11-20T15:00:57;10.70;51.30
3699;DHT22;1865;50.918;7.092;2022-11-20T15:03:39;10.80;50.90
3699;DHT22;1865;50.918;7.092;2022-11-20T15:06:07;10.80;51.30
3699;DHT22;1865;50.918;7.092;2022-11-20T15:08:34;10.90;50.70
3699;DHT22;1865;50.918;7.092;2022-11-20T15:10:59;10.80;50.50
3699;DHT22;1865;50.918;7.092;2022-11-20T15:13:31;10.80;50.90
3699;DHT22;1865;50.918;7.092;2022-11-20T15:15:58;10.70;51.20
3699;DHT22;1865;50.918;7.092;2022-11-20T15:18:28;10.70;51.50
3699;DHT22;1865;50.918;7.092;2022-11-20T15:20:57;10.70;51.70
3699;DHT22;1865;50.918;7.092;2022-11-20T15:23:23;10.70;52.30
3699;DHT22;1865;50.918;7.092;2022-11-20T15:25:49;10.90;52.40
3699;DHT22;1865;50.918;7.092;2022-11-20T15:28:34;10.70;53.10
3699;DHT22;1865;50.918;7.092;2022-11-20T15:31:00;10.50;53.70
3699;DHT22;1865;50.918;7.092;2022-11-20T15:33:27;10.50;54.50
3699;DHT22;1865;50.918;7.092;2022-11-20T15:35:53;10.50;54.80
3699;DHT22;1865;50.918;7.092;2022-11-20T15:38:18;10.60;54.80
3699;DHT22;1865;50.918;7.092;2022-11-20T15:40:44;10.50;55.80
3699;DHT22;1865;50.918;7.092;2022-11-20T15:43:10;10.50;56.60
3699;DHT22;1865;50.918;7.092;2022-11-20T15:45:44;10.40;56.90
3699;DHT22;1865;50.918;7.092;2022-11-20T15:48:14;10.40;57.20
3699;DHT22;1865;50.918;7.092;2022-11-20T15:53:40;10.30;58.10
3699;DHT22;1865;50.918;7.092;2022-11-20T15:56:11;10.30;58.00
3699;DHT22;1865;50.918;7.092;2022-11-20T15:58:37;10.20;58.60
3699;DHT22;1865;50.918;7.092;2022-11-20T16:01:03;10.20;59.00
3699;DHT22;1865;50.918;7.092;2022-11-20T16:03:28;10.30;59.60
3699;DHT22;1865;50.918;7.092;2022-11-20T16:05:54;10.30;59.20
3699;DHT22;1865;50.918;7.092;2022-11-20T16:08:22;10.30;59.70
3699;DHT22;1865;50.918;7.092;2022-11-20T16:10:48;10.50;59.40
3699;DHT22;1865;50.918;7.092;2022-11-20T16:13:16;10.50;59.10
3699;DHT22;1865;50.918;7.092;2022-11-20T16:16:03;10.40;59.40
3699;DHT22;1865;50.918;7.092;2022-11-20T16:18:31;10.40;59.60
3699;DHT22;1865;50.918;7.092;2022-11-20T16:20:57;10.40;59.90
3699;DHT22;1865;50.918;7.092;2022-11-20T16:23:23;10.50;59.60
3699;DHT22;1865;50.918;7.092;2022-11-20T16:25:49;10.50;60.30
3699;DHT22;1865;50.918;7.092;2022-11-20T16:28:16;10.50;59.80
3699;DHT22;1865;50.918;7.092;2022-11-20T16:30:41;10.50;60.60
3699;DHT22;1865;50.918;7.092;2022-11-20T16:33:16;10.60;59.60
3699;DHT22;1865;50.918;7.092;2022-11-20T16:35:42;10.50;60.40
3699;DHT22;1865;50.918;7.092;2022-11-20T16:38:09;10.50;60.30
3699;DHT22;1865;50.918;7.092;2022-11-20T16:40:35;10.50;60.20
3699;DHT22;1865;50.918;7.092;2022-11-20T16:43:11;10.50;61.50
3699;DHT22;1865;50.918;7.092;2022-11-20T16:45:42;10.40;60.70
3699;DHT22;1865;50.918;7.092;2022-11-20T16:48:12;10.50;61.50
3699;DHT22;1865;50.918;7.092;2022-11-20T16:50:48;10.50;61.00
3699;DHT22;1865;50.918;7.092;2022-11-20T16:53:14;10.50;60.70
3699;DHT22;1865;50.918;7.092;2022-11-20T16:55:39;10.50;61.20
3699;DHT22;1865;50.918;7.092;2022-11-20T16:58:05;10.50;60.90
3699;DHT22;1865;50.918;7.092;2022-11-20T17:00:31;10.60;60.80
3699;DHT22;1865;50.918;7.092;2022-11-20T17:02:56;10.60;60.40
3699;DHT22;1865;50.918;7.092;2022-11-20T17:05:23;10.60;60.90
3699;DHT22;1865;50.918;7.092;2022-11-20T17:07:49;10.70;61.10
3699;DHT22;1865;50.918;7.092;2022-11-20T17:10:15;10.70;60.40
3699;DHT22;1865;50.918;7.092;2022-11-20T17:12:41;10.60;60.60
3699;DHT22;1865;50.918;7.092;2022-11-20T17:15:07;10.50;60.70
3699;DHT22;1865;50.918;7.092;2022-11-20T17:17:33;10.50;60.40
3699;DHT22;1865;50.918;7.092;2022-11-20T17:20:01;10.50;61.60
3699;DHT22;1865;50.918;7.092;2022-11-20T17:22:28;10.40;61.50
3699;DHT22;1865;50.918;7.092;2022-11-20T17:24:54;10.40;61.40
3699;DHT22;1865;50.918;7.092;2022-11-20T17:27:20;10.30;61.70
3699;DHT22;1865;50.918;7.092;2022-11-20T17:29:45;10.30;62.40
3699;DHT22;1865;50.918;7.092;2022-11-20T17:32:11;10.60;61.80
3699;DHT22;1865;50.918;7.092;2022-11-20T17:34:36;10.50;61.50
3699;DHT22;1865;50.918;7.092;2022-11-20T17:37:02;10.60;61.70
3699;DHT22;1865;50.918;7.092;2022-11-20T17:39:27;10.70;61.60
3699;DHT22;1865;50.918;7.092;2022-11-20T17:41:54;10.60;60.80
3699;DHT22;1865;50.918;7.092;2022-11-20T17:44:41;10.50;61.30